Time;durP1;ratioP1;P1;durP2;ratioP2;P2;SDS_P1;SDS_P2;PMS_P1;PMS_P2;Temp;Humidity;BMP_temperature;BMP_pressure;BME280_temperature;BME280_humidity;BME280_pressure;Samples;Min_cycle;Max_cycle;Signal;HPM_P1;HPM_P2
2023/06/15 00:00:06;;;;;;;3.40;3.10;;;18.70;29.70;;;;;;5056663;28;20819;-74
2023/06/15 00:02:52;;;;;;;4.50;3.73;;;18.60;30.00;;;;;;5056385;28;20529;-73
2023/06/15 00:05:37;;;;;;;4.50;3.03;;;18.60;30.60;;;;;;5068440;28;20814;-73
2023/06/15 00:08:23;;;;;;;7.77;3.70;;;18.70;30.00;;;;;;5058823;28;20809;-73
2023/06/15 00:11:10;;;;;;;5.47;2.80;;;18.80;29.10;;;;;;5051853;28;20478;-73
2023/06/15 00:13:55;;;;;;;4.50;3.50;;;18.80;28.70;;;;;;5049695;28;20486;-74
2023/06/15 00:16:42;;;;;;;7.33;3.43;;;18.90;28.50;;;;;;5055014;22;20497;-73
2023/06/15 00:19:28;;;;;;;4.63;3.57;;;19.00;28.60;;;;;;5017542;28;20820;-70
2023/06/15 00:22:15;;;;;;;5.00;3.10;;;19.00;28.50;;;;;;5014165;28;20446;-70
2023/06/15 00:25:00;;;;;;;4.67;3.33;;;19.00;28.20;;;;;;5017170;28;20457;-70
2023/06/15 00:27:47;;;;;;;5.27;3.70;;;19.00;28.60;;;;;;5011774;28;20456;-73
2023/06/15 00:30:32;;;;;;;6.23;3.40;;;19.10;28.20;;;;;;5015022;28;20453;-70
2023/06/15 00:33:18;;;;;;;4.03;3.43;;;19.10;28.10;;;;;;5013765;28;20607;-72
2023/06/15 00:36:07;;;;;;;4.40;3.50;;;19.00;28.30;;;;;;5012848;28;21117;-71
2023/06/15 00:38:52;;;;;;;4.23;3.03;;;19.00;28.50;;;;;;5014461;28;20643;-70
2023/06/15 00:41:42;;;;;;;3.77;3.17;;;18.90;28.50;;;;;;5014255;28;20440;-72
2023/06/15 00:44:28;;;;;;;5.97;3.20;;;18.90;29.50;;;;;;5012340;28;21004;-71
2023/06/15 00:47:15;;;;;;;3.83;3.00;;;19.00;28.70;;;;;;5012464;28;21208;-72
2023/06/15 00:50:00;;;;;;;4.20;3.27;;;19.00;28.40;;;;;;5014240;28;20784;-71
2023/06/15 00:52:49;;;;;;;4.50;3.50;;;19.00;27.90;;;;;;5012559;28;20480;-70
2023/06/15 00:55:35;;;;;;;5.30;2.90;;;19.10;28.10;;;;;;5012847;28;20599;-72
2023/06/15 00:58:21;;;;;;;5.00;3.90;;;19.00;28.40;;;;;;5013507;28;20472;-72
2023/06/15 01:01:07;;;;;;;4.00;3.00;;;19.00;28.20;;;;;;5014005;28;20514;-70
2023/06/15 01:03:54;;;;;;;4.60;3.30;;;19.10;28.50;;;;;;5018422;28;20441;-72
2023/06/15 01:06:51;;;;;;;6.00;3.47;;;19.00;28.00;;;;;;5026089;28;20468;-71
2023/06/15 01:09:39;;;;;;;5.73;3.37;;;19.00;28.60;;;;;;5017251;28;20453;-70
2023/06/15 01:12:28;;;;;;;5.43;3.30;;;19.00;28.90;;;;;;5018034;28;20452;-71
2023/06/15 01:15:14;;;;;;;12.53;3.00;;;19.00;29.30;;;;;;5017924;28;20487;-71
2023/06/15 01:18:03;;;;;;;4.63;3.43;;;18.90;29.90;;;;;;5020199;28;20539;-72
2023/06/15 01:20:53;;;;;;;5.50;3.50;;;18.80;29.80;;;;;;5022524;28;20441;-71
2023/06/15 01:23:43;;;;;;;4.50;3.20;;;18.80;30.00;;;;;;5018024;28;20444;-71
2023/06/15 01:26:32;;;;;;;5.80;3.70;;;18.70;30.70;;;;;;5016914;28;20841;-70
2023/06/15 01:29:21;;;;;;;3.40;2.70;;;18.60;31.50;;;;;;5027124;28;20503;-71
2023/06/15 01:32:08;;;;;;;5.60;2.80;;;18.50;31.70;;;;;;5017406;28;20464;-72
2023/06/15 01:34:53;;;;;;;5.80;3.23;;;18.40;33.30;;;;;;5017554;28;20445;-72
2023/06/15 01:37:39;;;;;;;4.10;3.30;;;18.10;33.70;;;;;;5017304;28;21631;-72
2023/06/15 01:40:25;;;;;;;3.47;2.70;;;17.90;36.50;;;;;;5013677;28;20461;-72
2023/06/15 01:43:14;;;;;;;4.80;3.20;;;17.80;37.20;;;;;;5017151;28;20448;-72
2023/06/15 01:46:00;;;;;;;5.70;3.50;;;17.60;39.30;;;;;;5016497;28;20603;-71
2023/06/15 01:48:46;;;;;;;5.57;3.40;;;17.40;40.10;;;;;;5017609;28;20452;-70
2023/06/15 01:51:33;;;;;;;9.60;3.27;;;17.30;42.00;;;;;;5017083;28;20452;-70
2023/06/15 01:54:19;;;;;;;13.57;3.57;;;17.20;44.00;;;;;;5017379;28;20484;-71
2023/06/15 01:57:05;;;;;;;12.00;3.40;;;17.10;42.50;;;;;;5016884;28;20495;-70
2023/06/15 01:59:54;;;;;;;6.27;3.20;;;17.00;44.70;;;;;;5016175;28;20453;-70
2023/06/15 02:02:39;;;;;;;12.83;4.33;;;16.80;46.70;;;;;;5014241;28;20577;-70
2023/06/15 02:05:25;;;;;;;20.73;3.60;;;16.70;48.10;;;;;;5014383;28;20572;-71
2023/06/15 02:08:12;;;;;;;24.10;4.73;;;16.60;49.50;;;;;;5016588;28;20456;-70
2023/06/15 02:10:57;;;;;;;19.80;3.70;;;16.40;49.50;;;;;;5013744;28;20457;-70
2023/06/15 02:13:43;;;;;;;6.63;3.70;;;16.40;50.90;;;;;;5014233;28;21016;-70
2023/06/15 02:16:30;;;;;;;4.23;3.10;;;16.30;51.00;;;;;;5014090;28;23308;-70
2023/06/15 02:19:21;;;;;;;7.80;2.87;;;16.10;51.40;;;;;;5014752;28;20476;-71
2023/06/15 02:22:06;;;;;;;3.37;2.90;;;16.20;52.60;;;;;;5013705;28;20448;-70
2023/06/15 02:24:52;;;;;;;5.50;3.70;;;16.10;53.30;;;;;;5017754;28;20559;-72
2023/06/15 02:27:37;;;;;;;3.90;3.30;;;16.10;54.50;;;;;;5013727;28;20536;-70
2023/06/15 02:30:23;;;;;;;3.10;2.70;;;16.10;54.80;;;;;;5014048;28;20445;-71
2023/06/15 02:33:11;;;;;;;6.20;3.80;;;16.10;55.10;;;;;;5022390;28;20959;-70
2023/06/15 02:35:56;;;;;;;3.60;2.90;;;16.10;55.70;;;;;;5013046;28;20507;-70
2023/06/15 02:38:42;;;;;;;4.73;3.90;;;16.10;55.30;;;;;;5014934;28;21130;-71
2023/06/15 02:41:27;;;;;;;4.60;3.70;;;16.20;54.80;;;;;;5014164;28;20446;-70
2023/06/15 02:44:14;;;;;;;4.53;3.60;;;16.30;53.90;;;;;;5014635;28;20591;-71
2023/06/15 02:47:00;;;;;;;7.40;3.70;;;16.30;54.60;;;;;;5013118;28;20556;-70
2023/06/15 02:49:47;;;;;;;6.03;4.10;;;16.30;54.30;;;;;;5012765;28;20449;-71
2023/06/15 02:52:32;;;;;;;4.83;3.63;;;16.10;55.00;;;;;;5014142;28;20985;-70
2023/06/15 02:55:17;;;;;;;4.70;3.73;;;16.10;55.50;;;;;;5012519;28;20517;-70
2023/06/15 02:58:03;;;;;;;4.13;3.40;;;16.10;56.30;;;;;;5011646;28;20469;-71
2023/06/15 03:00:50;;;;;;;5.60;3.73;;;16.10;57.70;;;;;;5013472;28;20990;-70
2023/06/15 03:03:35;;;;;;;4.20;3.57;;;16.20;57.40;;;;;;5012102;28;20607;-70
2023/06/15 03:06:24;;;;;;;3.93;3.27;;;16.20;57.10;;;;;;5014035;28;20507;-70
2023/06/15 03:09:11;;;;;;;6.70;3.23;;;16.10;57.70;;;;;;5014534;28;21008;-70
2023/06/15 03:11:56;;;;;;;5.43;3.10;;;16.00;57.40;;;;;;5014893;28;20460;-70
2023/06/15 03:14:44;;;;;;;7.30;3.63;;;15.80;59.00;;;;;;5013686;28;20481;-72
2023/06/15 03:17:32;;;;;;;7.10;3.60;;;15.70;60.10;;;;;;5017539;28;20741;-70
2023/06/15 03:20:18;;;;;;;4.20;3.60;;;15.60;61.40;;;;;;5014850;28;20456;-70
2023/06/15 03:23:05;;;;;;;8.47;3.47;;;15.50;62.90;;;;;;5012176;28;20456;-70
2023/06/15 03:25:51;;;;;;;3.97;3.10;;;15.30;63.30;;;;;;5013430;28;20465;-71
2023/06/15 03:28:38;;;;;;;8.80;3.50;;;15.40;64.00;;;;;;5016105;28;20441;-70
2023/06/15 03:31:23;;;;;;;4.10;3.67;;;15.10;64.80;;;;;;5015402;28;20523;-71
2023/06/15 03:34:09;;;;;;;35.97;4.47;;;15.10;65.80;;;;;;5013534;28;21301;-70
2023/06/15 03:36:55;;;;;;;14.90;5.70;;;15.10;66.00;;;;;;5020080;28;20625;-70
2023/06/15 03:39:42;;;;;;;6.40;4.33;;;15.00;66.90;;;;;;5016384;28;20448;-72
2023/06/15 03:42:27;;;;;;;4.40;3.77;;;15.00;67.40;;;;;;5014998;28;20461;-70
2023/06/15 03:45:13;;;;;;;7.13;4.20;;;15.10;68.10;;;;;;5013044;28;20587;-70
2023/06/15 03:47:59;;;;;;;4.30;3.60;;;15.00;67.90;;;;;;5015193;28;21586;-71
2023/06/15 03:50:45;;;;;;;6.73;4.37;;;15.00;68.40;;;;;;5014184;28;20449;-71
2023/06/15 03:53:30;;;;;;;6.57;4.13;;;15.00;68.90;;;;;;5014288;28;21181;-72
2023/06/15 03:56:17;;;;;;;9.53;4.50;;;15.10;69.50;;;;;;5015531;28;21238;-71
2023/06/15 03:59:03;;;;;;;10.50;4.90;;;15.10;69.90;;;;;;5009400;28;20436;-71
2023/06/15 04:01:48;;;;;;;4.70;3.77;;;15.10;69.60;;;;;;5016634;28;21892;-70
2023/06/15 04:04:34;;;;;;;10.67;4.30;;;15.20;69.80;;;;;;5012539;28;20558;-70
2023/06/15 04:07:19;;;;;;;13.50;4.27;;;15.10;70.40;;;;;;5015217;28;22831;-71
2023/06/15 04:10:08;;;;;;;4.80;3.50;;;15.20;70.70;;;;;;5014486;28;20453;-71
2023/06/15 04:12:54;;;;;;;5.80;4.20;;;15.20;71.20;;;;;;5015972;28;20445;-70
2023/06/15 04:15:40;;;;;;;5.17;4.40;;;15.20;71.80;;;;;;5015275;28;20547;-72
2023/06/15 04:18:26;;;;;;;5.73;4.30;;;15.40;72.10;;;;;;5014242;28;21056;-71
2023/06/15 04:21:11;;;;;;;5.40;4.40;;;15.50;70.90;;;;;;5014781;28;20457;-70
2023/06/15 04:23:57;;;;;;;6.73;4.40;;;15.60;71.00;;;;;;5017681;28;20440;-71
2023/06/15 04:26:43;;;;;;;9.10;4.60;;;15.80;71.20;;;;;;5017923;28;20465;-71
2023/06/15 04:29:29;;;;;;;4.70;3.73;;;16.00;69.20;;;;;;5012658;28;20523;-71
2023/06/15 04:32:15;;;;;;;7.87;3.93;;;16.30;67.30;;;;;;5011605;28;20580;-70
2023/06/15 04:35:01;;;;;;;7.53;3.60;;;16.50;67.00;;;;;;5013142;28;20481;-70
2023/06/15 04:37:46;;;;;;;6.20;4.23;;;16.70;66.20;;;;;;5015995;28;20455;-71
2023/06/15 04:40:32;;;;;;;4.50;3.50;;;16.90;65.40;;;;;;5019808;28;20437;-70
2023/06/15 04:43:18;;;;;;;5.53;3.77;;;17.10;62.60;;;;;;5018678;28;20464;-70
2023/06/15 04:46:05;;;;;;;13.07;4.27;;;17.30;60.90;;;;;;5020387;28;20464;-70
2023/06/15 04:48:51;;;;;;;7.40;4.43;;;17.40;60.20;;;;;;5021123;28;20613;-71
2023/06/15 04:51:38;;;;;;;8.20;4.03;;;17.50;59.80;;;;;;5019384;28;20456;-71
2023/06/15 04:54:23;;;;;;;6.90;4.17;;;17.50;60.00;;;;;;5018096;28;20516;-72
2023/06/15 04:57:09;;;;;;;5.83;3.70;;;17.60;60.10;;;;;;5018912;28;20485;-71
2023/06/15 04:59:54;;;;;;;4.03;3.60;;;17.70;58.30;;;;;;5020753;28;20452;-70
2023/06/15 05:02:41;;;;;;;4.70;4.03;;;17.80;59.00;;;;;;5015715;28;21060;-70
2023/06/15 05:05:26;;;;;;;5.43;3.20;;;17.90;58.90;;;;;;5015339;28;20515;-70
2023/06/15 05:08:13;;;;;;;8.50;4.03;;;18.00;56.70;;;;;;5016752;28;20495;-70
2023/06/15 05:10:58;;;;;;;9.53;3.80;;;18.00;56.30;;;;;;5016007;28;20443;-70
2023/06/15 05:13:44;;;;;;;5.70;3.60;;;18.10;55.30;;;;;;5017206;28;20519;-71
2023/06/15 05:16:29;;;;;;;5.00;3.40;;;18.20;55.10;;;;;;5018241;28;21014;-70
2023/06/15 05:19:16;;;;;;;4.70;3.90;;;18.30;54.10;;;;;;5016515;28;20452;-70
2023/06/15 05:22:03;;;;;;;7.13;3.70;;;18.30;53.70;;;;;;5014630;28;20440;-71
2023/06/15 05:24:49;;;;;;;4.03;3.03;;;18.40;53.30;;;;;;5016585;28;20989;-71
2023/06/15 05:27:36;;;;;;;5.27;3.67;;;18.50;51.70;;;;;;5018753;28;20449;-72
2023/06/15 05:30:26;;;;;;;3.97;3.57;;;18.60;51.90;;;;;;5017712;28;20447;-70
2023/06/15 05:33:11;;;;;;;5.60;4.43;;;18.50;51.70;;;;;;5014410;28;21063;-71
2023/06/15 05:35:58;;;;;;;8.03;4.07;;;18.60;51.90;;;;;;5016111;28;20538;-71
2023/06/15 05:38:43;;;;;;;6.53;4.43;;;18.60;51.80;;;;;;5016110;28;20484;-71
2023/06/15 05:41:29;;;;;;;5.67;3.83;;;18.70;51.90;;;;;;5016604;28;20472;-71
2023/06/15 05:44:14;;;;;;;5.53;4.10;;;18.80;51.00;;;;;;5016090;28;21263;-70
2023/06/15 05:47:01;;;;;;;5.17;3.87;;;18.90;49.70;;;;;;5010558;28;20819;-72
2023/06/15 05:49:46;;;;;;;6.50;4.33;;;19.00;48.10;;;;;;5017307;28;20520;-70
2023/06/15 05:52:33;;;;;;;4.60;3.60;;;19.10;47.90;;;;;;5015869;28;20453;-72
2023/06/15 05:55:19;;;;;;;13.50;3.93;;;19.10;48.30;;;;;;5015834;28;20505;-71
2023/06/15 05:58:04;;;;;;;5.10;3.80;;;19.20;47.80;;;;;;5019493;28;21024;-70
2023/06/15 06:00:50;;;;;;;6.50;4.17;;;19.30;46.20;;;;;;5017123;28;20533;-72
2023/06/15 06:03:35;;;;;;;5.70;4.83;;;19.20;45.50;;;;;;5016065;28;20452;-70
2023/06/15 06:06:21;;;;;;;6.03;4.73;;;19.30;46.90;;;;;;5016927;28;20476;-70
2023/06/15 06:09:08;;;;;;;6.20;4.50;;;19.30;46.60;;;;;;5019123;28;20576;-69
2023/06/15 06:11:53;;;;;;;6.03;4.50;;;19.40;46.60;;;;;;5017316;28;20453;-71
2023/06/15 06:14:38;;;;;;;5.67;4.40;;;19.50;44.20;;;;;;5018579;28;20472;-69
2023/06/15 06:17:24;;;;;;;6.13;4.00;;;19.60;45.10;;;;;;5082128;22;20486;-73
2023/06/15 06:20:11;;;;;;;4.77;4.00;;;19.70;44.50;;;;;;5059587;28;20514;-70
2023/06/15 06:22:56;;;;;;;7.10;4.60;;;19.80;44.00;;;;;;5060403;28;20451;-73
2023/06/15 06:25:43;;;;;;;7.47;4.40;;;19.90;43.60;;;;;;5061819;28;20455;-72
2023/06/15 06:28:28;;;;;;;4.93;4.30;;;20.00;42.90;;;;;;5055318;28;20493;-74
2023/06/15 06:31:14;;;;;;;6.10;4.90;;;20.10;42.10;;;;;;5056402;28;21039;-71
2023/06/15 06:34:00;;;;;;;7.17;4.20;;;20.20;39.80;;;;;;5056820;28;20435;-70
2023/06/15 06:36:45;;;;;;;7.00;4.30;;;20.20;41.50;;;;;;5055478;28;20493;-70
2023/06/15 06:39:31;;;;;;;4.77;4.20;;;20.30;41.20;;;;;;5053249;28;20430;-71
2023/06/15 06:42:18;;;;;;;5.10;4.20;;;20.30;40.30;;;;;;5052558;28;20450;-70
2023/06/15 06:45:04;;;;;;;15.73;4.57;;;20.40;40.20;;;;;;5052931;28;20851;-71
2023/06/15 06:47:49;;;;;;;6.57;4.03;;;20.50;40.10;;;;;;5052729;28;20451;-70
2023/06/15 06:50:35;;;;;;;4.80;3.97;;;20.60;39.50;;;;;;5052467;28;20506;-70
2023/06/15 06:53:21;;;;;;;7.43;3.90;;;20.70;37.70;;;;;;5054955;28;20426;-72
2023/06/15 06:56:07;;;;;;;4.37;3.90;;;20.70;39.40;;;;;;5052095;28;20491;-68
2023/06/15 06:58:54;;;;;;;5.70;4.50;;;20.80;40.00;;;;;;5052180;28;21009;-69
2023/06/15 07:01:39;;;;;;;5.13;3.90;;;20.90;39.70;;;;;;5052731;28;20490;-70
2023/06/15 07:04:25;;;;;;;16.27;4.27;;;21.00;39.80;;;;;;5053155;28;21204;-69
2023/06/15 07:07:10;;;;;;;5.90;3.80;;;21.00;38.10;;;;;;5052353;28;20541;-69
2023/06/15 07:09:56;;;;;;;7.13;4.83;;;21.10;37.10;;;;;;5051277;28;20583;-70
2023/06/15 07:12:41;;;;;;;8.03;6.00;;;21.20;36.60;;;;;;5051071;28;20458;-69
2023/06/15 07:15:31;;;;;;;5.57;4.13;;;21.30;34.50;;;;;;5052891;28;20499;-69
2023/06/15 07:18:17;;;;;;;5.97;4.17;;;21.30;36.20;;;;;;5057665;28;20587;-70
2023/06/15 07:21:02;;;;;;;6.20;4.10;;;21.40;35.90;;;;;;5055474;28;20857;-71
2023/06/15 07:23:48;;;;;;;7.03;4.40;;;21.50;33.40;;;;;;5065856;28;20509;-70
2023/06/15 07:26:33;;;;;;;5.27;4.00;;;21.50;35.00;;;;;;5067737;28;20467;-71
2023/06/15 07:29:18;;;;;;;12.90;3.80;;;21.60;34.60;;;;;;5050344;28;20447;-72
2023/06/15 07:32:06;;;;;;;4.63;4.03;;;21.70;33.40;;;;;;5051352;28;20438;-71
2023/06/15 07:34:52;;;;;;;4.30;3.53;;;21.80;33.90;;;;;;5053640;28;20490;-70
2023/06/15 07:37:37;;;;;;;4.37;3.93;;;21.90;33.40;;;;;;5054333;28;20466;-70
2023/06/15 07:40:23;;;;;;;5.00;4.37;;;21.90;34.20;;;;;;5053557;28;20462;-72
2023/06/15 07:43:09;;;;;;;5.60;4.13;;;22.00;31.80;;;;;;5055501;28;20444;-70
2023/06/15 07:45:55;;;;;;;7.07;4.50;;;22.00;29.40;;;;;;5054454;28;20490;-72
2023/06/15 07:48:42;;;;;;;4.20;3.30;;;22.10;29.40;;;;;;5058476;28;20570;-69
2023/06/15 07:51:27;;;;;;;5.80;4.13;;;22.20;28.20;;;;;;5056444;28;20494;-72
2023/06/15 07:54:13;;;;;;;7.00;4.53;;;22.30;30.40;;;;;;5054347;28;20443;-70
2023/06/15 07:56:58;;;;;;;5.23;4.60;;;22.40;30.50;;;;;;5053715;28;20996;-70
2023/06/15 07:59:44;;;;;;;6.10;4.23;;;22.50;27.20;;;;;;5058687;28;20855;-71
2023/06/15 08:02:29;;;;;;;6.10;4.70;;;22.60;26.30;;;;;;5055909;28;20451;-72
2023/06/15 08:05:16;;;;;;;5.13;4.10;;;22.60;27.00;;;;;;5058711;28;20447;-70
2023/06/15 08:08:02;;;;;;;4.70;4.20;;;22.70;28.30;;;;;;5069721;28;20457;-70
2023/06/15 08:10:47;;;;;;;5.43;4.70;;;22.70;28.90;;;;;;5051865;28;20440;-70
2023/06/15 08:13:33;;;;;;;10.10;3.80;;;22.70;28.60;;;;;;5054198;28;20443;-70
2023/06/15 08:16:18;;;;;;;5.27;3.80;;;22.70;27.30;;;;;;5058654;28;20466;-70
2023/06/15 08:19:05;;;;;;;5.60;4.63;;;22.80;26.20;;;;;;5055447;28;20482;-70
2023/06/15 08:21:52;;;;;;;4.70;4.13;;;22.90;26.80;;;;;;5057284;28;20480;-70
2023/06/15 08:24:38;;;;;;;4.83;4.33;;;22.90;26.70;;;;;;5069885;28;20589;-69
2023/06/15 08:27:23;;;;;;;7.47;5.00;;;22.80;26.80;;;;;;5059098;28;20598;-71
2023/06/15 08:30:10;;;;;;;5.80;4.20;;;22.90;27.50;;;;;;5054362;28;20454;-71
2023/06/15 08:32:55;;;;;;;5.83;4.10;;;23.00;26.60;;;;;;5053731;28;20856;-71
2023/06/15 08:35:41;;;;;;;4.53;4.03;;;23.10;27.80;;;;;;5052526;28;20478;-70
2023/06/15 08:38:28;;;;;;;6.87;5.03;;;23.20;26.20;;;;;;5049389;28;21040;-70
2023/06/15 08:41:14;;;;;;;5.70;4.40;;;23.30;25.40;;;;;;5047558;28;20979;-70
2023/06/15 08:44:01;;;;;;;4.83;3.50;;;23.40;24.60;;;;;;5048446;28;20573;-72
2023/06/15 08:46:48;;;;;;;5.83;4.47;;;23.40;24.50;;;;;;5049020;28;20466;-71
2023/06/15 08:49:33;;;;;;;6.70;4.70;;;23.40;23.50;;;;;;5050334;28;20451;-71
2023/06/15 08:52:21;;;;;;;6.87;4.33;;;23.50;23.30;;;;;;5053830;28;20443;-71
2023/06/15 08:55:12;;;;;;;9.43;4.23;;;23.60;23.10;;;;;;5049577;28;20995;-70
2023/06/15 08:57:59;;;;;;;6.20;4.40;;;23.60;22.10;;;;;;5046680;28;20459;-70
2023/06/15 09:00:45;;;;;;;7.53;4.37;;;23.60;23.00;;;;;;5050281;28;20508;-73
2023/06/15 09:03:31;;;;;;;7.50;4.50;;;23.60;23.10;;;;;;5049540;28;20467;-70
2023/06/15 09:06:16;;;;;;;4.73;4.23;;;23.60;22.90;;;;;;5049467;28;20532;-70
2023/06/15 09:09:03;;;;;;;5.30;4.60;;;23.70;23.80;;;;;;5047806;28;20488;-69
2023/06/15 09:11:50;;;;;;;7.33;4.40;;;23.80;21.70;;;;;;5050809;28;20558;-69
2023/06/15 09:14:39;;;;;;;4.50;4.00;;;23.80;22.90;;;;;;5049282;28;22535;-69
2023/06/15 09:17:27;;;;;;;5.93;3.60;;;23.90;22.70;;;;;;5053249;28;21055;-69
2023/06/15 09:20:13;;;;;;;6.73;4.40;;;23.90;22.40;;;;;;5050610;28;20447;-68
2023/06/15 09:23:01;;;;;;;4.00;3.23;;;23.90;20.50;;;;;;5050486;28;20455;-70
2023/06/15 09:25:52;;;;;;;4.60;3.77;;;24.00;21.00;;;;;;5061985;28;20513;-71
2023/06/15 09:28:45;;;;;;;6.57;3.73;;;24.00;21.40;;;;;;5054076;28;20452;-71
2023/06/15 09:31:32;;;;;;;3.90;3.27;;;24.00;20.40;;;;;;5053742;28;20957;-71
2023/06/15 09:34:18;;;;;;;4.10;3.27;;;24.00;20.20;;;;;;5052339;28;20804;-70
2023/06/15 09:37:15;;;;;;;7.80;4.40;;;24.10;19.50;;;;;;5052562;28;20471;-70
2023/06/15 09:40:04;;;;;;;4.37;3.93;;;24.20;18.40;;;;;;5054404;28;20612;-70
2023/06/15 09:42:51;;;;;;;7.07;3.70;;;24.30;19.10;;;;;;5053149;28;21676;-71
2023/06/15 09:45:48;;;;;;;4.00;3.50;;;24.30;18.70;;;;;;5052356;28;20464;-70
2023/06/15 09:48:37;;;;;;;3.90;3.23;;;24.40;18.60;;;;;;5068645;28;20446;-70
2023/06/15 09:51:28;;;;;;;4.70;3.53;;;24.40;18.10;;;;;;5053738;28;20551;-71
2023/06/15 09:54:15;;;;;;;4.70;3.47;;;24.40;18.80;;;;;;5053267;28;22580;-71
2023/06/15 09:57:02;;;;;;;5.10;3.80;;;24.40;18.60;;;;;;5052243;28;20503;-70
2023/06/15 09:59:48;;;;;;;7.10;3.00;;;24.50;18.60;;;;;;5053120;28;20464;-71
2023/06/15 10:02:37;;;;;;;5.13;3.40;;;24.60;18.60;;;;;;5058599;28;20569;-70
2023/06/15 10:05:31;;;;;;;3.50;3.13;;;24.70;18.20;;;;;;5054148;28;20964;-70
2023/06/15 10:08:20;;;;;;;6.17;3.37;;;24.70;16.10;;;;;;5051743;28;20447;-69
2023/06/15 10:11:05;;;;;;;5.50;3.60;;;24.70;15.70;;;;;;5050777;28;20585;-70
2023/06/15 10:13:55;;;;;;;6.57;3.80;;;24.70;15.90;;;;;;5053270;28;20739;-71
2023/06/15 10:16:41;;;;;;;4.90;3.53;;;24.70;16.10;;;;;;5057942;28;21063;-71
2023/06/15 10:19:30;;;;;;;4.77;3.70;;;24.80;14.00;;;;;;5052186;28;20969;-70
2023/06/15 10:22:19;;;;;;;5.10;4.10;;;24.80;12.40;;;;;;5051796;28;20440;-72
2023/06/15 10:25:06;;;;;;;4.97;3.00;;;24.90;11.60;;;;;;5053486;28;20451;-71
2023/06/15 10:27:52;;;;;;;5.17;4.20;;;25.00;11.80;;;;;;5052126;28;20449;-72
2023/06/15 10:30:44;;;;;;;5.97;4.13;;;25.00;13.10;;;;;;5059559;28;20461;-69
2023/06/15 10:33:36;;;;;;;5.50;3.90;;;25.00;12.20;;;;;;5052878;28;20447;-71
2023/06/15 10:36:25;;;;;;;5.20;4.20;;;25.00;13.00;;;;;;5051786;28;20583;-71
2023/06/15 10:39:17;;;;;;;4.50;3.80;;;25.10;13.30;;;;;;5059036;28;20799;-70
2023/06/15 10:42:07;;;;;;;4.57;3.83;;;25.20;13.20;;;;;;5050239;28;20615;-73
2023/06/15 10:44:52;;;;;;;4.87;3.87;;;25.30;13.30;;;;;;5050414;28;20448;-70
2023/06/15 10:47:48;;;;;;;5.40;3.60;;;25.30;12.30;;;;;;5052488;28;20562;-71
2023/06/15 10:50:48;;;;;;;7.03;4.40;;;25.30;10.30;;;;;;5052129;28;20573;-72
2023/06/15 10:53:39;;;;;;;5.30;3.67;;;25.30;12.30;;;;;;5051275;28;20443;-70
2023/06/15 10:56:27;;;;;;;4.50;3.70;;;25.30;11.10;;;;;;5050325;28;20640;-70
2023/06/15 10:59:12;;;;;;;5.63;3.83;;;25.40;12.50;;;;;;5050577;28;20449;-71
2023/06/15 11:01:58;;;;;;;4.53;3.93;;;25.50;11.30;;;;;;5052995;28;20587;-71
2023/06/15 11:04:52;;;;;;;13.90;4.33;;;25.50;11.10;;;;;;5051510;28;20922;-70
2023/06/15 11:07:38;;;;;;;4.90;4.40;;;25.70;12.40;;;;;;5054849;28;20910;-69
2023/06/15 11:10:31;;;;;;;6.13;4.20;;;25.70;11.90;;;;;;5052572;28;20493;-70
2023/06/15 11:13:24;;;;;;;5.27;4.63;;;25.90;11.10;;;;;;5054957;28;20590;-71
2023/06/15 11:16:10;;;;;;;8.07;4.13;;;26.00;13.40;;;;;;5054670;28;20521;-72
2023/06/15 11:18:57;;;;;;;5.53;4.60;;;26.10;14.10;;;;;;5048822;28;20448;-70
2023/06/15 11:21:44;;;;;;;5.33;4.37;;;26.20;12.40;;;;;;5049087;28;20495;-70
2023/06/15 11:24:36;;;;;;;5.20;4.70;;;26.30;15.40;;;;;;5050464;28;20443;-70
2023/06/15 11:27:23;;;;;;;6.00;4.73;;;26.30;12.60;;;;;;5052974;28;20457;-72
2023/06/15 11:30:10;;;;;;;5.00;4.40;;;26.30;12.90;;;;;;5049683;28;20466;-72
2023/06/15 11:32:55;;;;;;;6.23;4.67;;;26.40;12.80;;;;;;5059019;28;20459;-71
2023/06/15 11:35:41;;;;;;;7.03;5.13;;;26.40;11.60;;;;;;5053490;28;20524;-70
2023/06/15 11:38:29;;;;;;;5.70;4.60;;;26.20;9.60;;;;;;5053637;28;20454;-71
2023/06/15 11:41:15;;;;;;;5.57;4.67;;;26.20;11.90;;;;;;5047942;28;20512;-71
2023/06/15 11:44:01;;;;;;;5.97;4.67;;;26.30;11.60;;;;;;5048985;28;20448;-71
2023/06/15 11:46:53;;;;;;;6.57;5.13;;;26.40;14.00;;;;;;5044066;28;20516;-71
2023/06/15 11:49:38;;;;;;;5.97;4.57;;;26.40;11.60;;;;;;5049432;28;21077;-70
2023/06/15 11:52:24;;;;;;;5.77;5.17;;;26.60;12.00;;;;;;5049070;28;20499;-73
2023/06/15 11:55:10;;;;;;;5.87;5.07;;;26.60;11.70;;;;;;5049813;28;20493;-71
2023/06/15 11:57:56;;;;;;;8.60;5.20;;;26.60;11.70;;;;;;5047556;28;20455;-71
2023/06/15 12:00:42;;;;;;;6.50;4.60;;;26.70;12.50;;;;;;5050932;28;20453;-71
2023/06/15 12:03:28;;;;;;;6.10;4.53;;;26.80;11.00;;;;;;5046503;28;20878;-71
2023/06/15 12:06:16;;;;;;;7.37;4.77;;;27.00;12.40;;;;;;5053797;28;20485;-71
2023/06/15 12:09:03;;;;;;;7.90;4.77;;;27.10;9.50;;;;;;5049474;28;20455;-72
2023/06/15 12:11:49;;;;;;;5.67;4.17;;;27.00;10.90;;;;;;5051708;28;20454;-71
2023/06/15 12:14:34;;;;;;;5.53;5.03;;;27.10;9.80;;;;;;5052763;28;20703;-72
2023/06/15 12:17:28;;;;;;;6.73;5.43;;;27.10;8.30;;;;;;5055145;22;20639;-72
2023/06/15 12:20:14;;;;;;;6.90;4.43;;;27.10;8.90;;;;;;5030358;28;20459;-72
2023/06/15 12:22:59;;;;;;;7.10;5.00;;;27.10;7.70;;;;;;5037446;28;20446;-72
2023/06/15 12:25:46;;;;;;;6.73;4.60;;;27.00;9.80;;;;;;5031737;28;20451;-72
2023/06/15 12:28:33;;;;;;;5.73;3.80;;;27.00;8.90;;;;;;5027947;28;20456;-72
2023/06/15 12:31:18;;;;;;;6.20;4.37;;;27.10;8.30;;;;;;5029141;28;20580;-72
2023/06/15 12:34:09;;;;;;;9.43;4.93;;;27.20;8.80;;;;;;5030028;28;21006;-72
2023/06/15 12:36:55;;;;;;;5.20;4.00;;;27.30;7.10;;;;;;5032567;28;20522;-72
2023/06/15 12:39:41;;;;;;;5.70;4.40;;;27.40;8.10;;;;;;5029085;28;20521;-72
2023/06/15 12:42:27;;;;;;;6.13;4.53;;;27.40;8.00;;;;;;5026609;28;20448;-72
2023/06/15 12:45:13;;;;;;;8.00;4.53;;;27.50;8.60;;;;;;5031398;28;20445;-72
2023/06/15 12:47:59;;;;;;;5.23;4.73;;;27.50;8.60;;;;;;5026237;28;20972;-73
2023/06/15 12:50:46;;;;;;;6.07;4.70;;;27.60;8.70;;;;;;5029576;28;20449;-72
2023/06/15 12:53:31;;;;;;;8.10;4.87;;;27.70;7.40;;;;;;5028936;28;20984;-72
2023/06/15 12:56:17;;;;;;;7.23;4.37;;;27.70;8.40;;;;;;5036117;28;20479;-72
2023/06/15 12:59:03;;;;;;;6.83;4.60;;;27.90;8.60;;;;;;5031570;28;20448;-72
2023/06/15 13:01:48;;;;;;;4.77;4.00;;;27.90;7.60;;;;;;5032737;28;20464;-72
2023/06/15 13:04:34;;;;;;;6.87;4.63;;;28.00;8.90;;;;;;5033053;28;20446;-72
2023/06/15 13:07:24;;;;;;;8.37;4.73;;;28.10;8.90;;;;;;5034385;28;20464;-72
2023/06/15 13:10:10;;;;;;;4.80;3.97;;;28.20;9.00;;;;;;5035347;28;20996;-72
2023/06/15 13:12:55;;;;;;;6.37;4.57;;;28.20;7.50;;;;;;5031268;28;20479;-72
2023/06/15 13:15:41;;;;;;;5.30;4.40;;;28.30;7.90;;;;;;5033730;28;20436;-72
2023/06/15 13:18:27;;;;;;;5.00;4.03;;;28.20;7.50;;;;;;5033744;28;21033;-72
2023/06/15 13:21:12;;;;;;;5.03;4.37;;;27.90;7.00;;;;;;5033740;28;20451;-72
2023/06/15 13:23:59;;;;;;;5.40;4.10;;;27.50;7.50;;;;;;5032907;28;20957;-72
2023/06/15 13:26:45;;;;;;;6.13;4.87;;;27.30;7.70;;;;;;5032477;28;20995;-72
2023/06/15 13:29:31;;;;;;;5.53;4.00;;;27.20;6.70;;;;;;5040874;28;21949;-72
2023/06/15 13:32:16;;;;;;;7.50;4.50;;;27.40;7.80;;;;;;5027198;28;20464;-72
2023/06/15 13:35:02;;;;;;;4.50;3.43;;;27.50;6.60;;;;;;5029894;28;20964;-72
2023/06/15 13:37:47;;;;;;;8.93;3.77;;;27.20;3.30;;;;;;5030930;28;20475;-72
2023/06/15 13:40:34;;;;;;;5.33;3.80;;;27.30;4.40;;;;;;5030826;28;21136;-72
2023/06/15 13:43:20;;;;;;;4.97;3.90;;;27.40;4.80;;;;;;5031549;28;20484;-72
2023/06/15 13:46:05;;;;;;;4.80;4.10;;;27.80;7.00;;;;;;5031396;28;20837;-72
2023/06/15 13:48:51;;;;;;;6.57;3.97;;;27.90;7.30;;;;;;5029940;28;20575;-72
2023/06/15 13:51:37;;;;;;;5.70;4.27;;;28.00;6.70;;;;;;5031201;28;21370;-72
2023/06/15 13:54:22;;;;;;;5.00;4.10;;;27.80;6.30;;;;;;5039377;28;20526;-72
2023/06/15 13:57:10;;;;;;;8.27;4.43;;;27.70;7.10;;;;;;5031327;28;21020;-72
2023/06/15 13:59:55;;;;;;;6.43;4.00;;;27.90;6.00;;;;;;5033876;28;20805;-72
2023/06/15 14:02:43;;;;;;;6.43;3.90;;;27.90;5.00;;;;;;5031353;28;20502;-72
2023/06/15 14:05:28;;;;;;;5.10;4.00;;;27.70;6.00;;;;;;5037670;28;20497;-72
2023/06/15 14:08:14;;;;;;;5.67;4.40;;;28.00;7.50;;;;;;5030127;28;20448;-72
2023/06/15 14:10:59;;;;;;;6.60;4.17;;;28.30;8.40;;;;;;5031579;28;20456;-72
2023/06/15 14:13:50;;;;;;;11.03;3.83;;;28.40;7.30;;;;;;5030296;28;20448;-72
2023/06/15 14:16:35;;;;;;;8.10;4.27;;;28.60;7.90;;;;;;5038788;28;20482;-72
2023/06/15 14:19:22;;;;;;;4.87;3.30;;;28.70;7.60;;;;;;5026381;28;20512;-72
2023/06/15 14:22:08;;;;;;;7.37;4.50;;;28.80;7.30;;;;;;5029238;28;20488;-72
2023/06/15 14:24:53;;;;;;;7.90;4.53;;;28.90;7.40;;;;;;5030330;28;20442;-72
2023/06/15 14:27:43;;;;;;;7.27;4.00;;;28.90;6.70;;;;;;5030842;28;20615;-72